sensor_id;sensor_type;location;lat;lon;timestamp;P1;durP1;ratioP1;P2;durP2;ratioP2
9720;SDS011;4899;42.644;23.366;2022-07-03T00:00:17;7.93;;;7.20;;
9720;SDS011;4899;42.644;23.366;2022-07-03T00:02:44;7.90;;;7.17;;
9720;SDS011;4899;42.644;23.366;2022-07-03T00:05:11;8.47;;;7.70;;
9720;SDS011;4899;42.644;23.366;2022-07-03T00:07:38;9.27;;;8.30;;
9720;SDS011;4899;42.644;23.366;2022-07-03T00:10:05;15.30;;;7.53;;
9720;SDS011;4899;42.644;23.366;2022-07-03T00:12:34;9.00;;;8.07;;
9720;SDS011;4899;42.644;23.366;2022-07-03T00:15:01;9.37;;;8.57;;
9720;SDS011;4899;42.644;23.366;2022-07-03T00:17:29;9.53;;;8.17;;
9720;SDS011;4899;42.644;23.366;2022-07-03T00:19:56;10.73;;;8.43;;
9720;SDS011;4899;42.644;23.366;2022-07-03T00:22:24;9.03;;;8.07;;
9720;SDS011;4899;42.644;23.366;2022-07-03T00:24:52;9.23;;;8.43;;
9720;SDS011;4899;42.644;23.366;2022-07-03T00:27:24;9.20;;;8.40;;
9720;SDS011;4899;42.644;23.366;2022-07-03T00:29:53;9.10;;;8.30;;
9720;SDS011;4899;42.644;23.366;2022-07-03T00:32:24;10.27;;;8.30;;
9720;SDS011;4899;42.644;23.366;2022-07-03T00:34:52;10.53;;;9.47;;
9720;SDS011;4899;42.644;23.366;2022-07-03T00:37:20;9.63;;;8.37;;
9720;SDS011;4899;42.644;23.366;2022-07-03T00:39:48;9.73;;;8.93;;
9720;SDS011;4899;42.644;23.366;2022-07-03T00:42:15;9.43;;;8.53;;
9720;SDS011;4899;42.644;23.366;2022-07-03T00:44:44;9.37;;;8.53;;
9720;SDS011;4899;42.644;23.366;2022-07-03T00:47:13;12.57;;;8.57;;
9720;SDS011;4899;42.644;23.366;2022-07-03T00:49:41;12.33;;;9.80;;
9720;SDS011;4899;42.644;23.366;2022-07-03T00:52:11;9.87;;;8.83;;
9720;SDS011;4899;42.644;23.366;2022-07-03T00:54:42;9.87;;;9.00;;
9720;SDS011;4899;42.644;23.366;2022-07-03T00:57:13;10.03;;;9.13;;
9720;SDS011;4899;42.644;23.366;2022-07-03T00:59:41;9.90;;;8.83;;
9720;SDS011;4899;42.644;23.366;2022-07-03T01:02:08;9.97;;;8.97;;
9720;SDS011;4899;42.644;23.366;2022-07-03T01:04:48;9.13;;;8.33;;
9720;SDS011;4899;42.644;23.366;2022-07-03T01:07:19;9.53;;;8.63;;
9720;SDS011;4899;42.644;23.366;2022-07-03T01:10:00;12.40;;;9.13;;
9720;SDS011;4899;42.644;23.366;2022-07-03T01:12:33;9.90;;;9.00;;
9720;SDS011;4899;42.644;23.366;2022-07-03T01:15:10;8.77;;;8.07;;
9720;SDS011;4899;42.644;23.366;2022-07-03T01:17:46;9.77;;;7.90;;
9720;SDS011;4899;42.644;23.366;2022-07-03T01:20:19;10.57;;;9.03;;
9720;SDS011;4899;42.644;23.366;2022-07-03T01:22:54;10.00;;;9.17;;
9720;SDS011;4899;42.644;23.366;2022-07-03T01:25:24;8.47;;;7.77;;
9720;SDS011;4899;42.644;23.366;2022-07-03T01:30:39;9.07;;;8.10;;
9720;SDS011;4899;42.644;23.366;2022-07-03T01:33:08;10.43;;;8.47;;
9720;SDS011;4899;42.644;23.366;2022-07-03T01:35:36;9.90;;;8.03;;
9720;SDS011;4899;42.644;23.366;2022-07-03T01:38:05;9.53;;;8.53;;
9720;SDS011;4899;42.644;23.366;2022-07-03T01:40:35;8.73;;;7.93;;
9720;SDS011;4899;42.644;23.366;2022-07-03T01:43:05;9.53;;;8.63;;
9720;SDS011;4899;42.644;23.366;2022-07-03T01:45:34;9.70;;;8.63;;
9720;SDS011;4899;42.644;23.366;2022-07-03T01:48:09;9.37;;;8.47;;
9720;SDS011;4899;42.644;23.366;2022-07-03T01:50:37;10.73;;;7.97;;
9720;SDS011;4899;42.644;23.366;2022-07-03T01:53:06;10.10;;;9.20;;
9720;SDS011;4899;42.644;23.366;2022-07-03T01:55:35;8.83;;;8.07;;
9720;SDS011;4899;42.644;23.366;2022-07-03T01:58:04;9.70;;;8.33;;
9720;SDS011;4899;42.644;23.366;2022-07-03T02:00:35;9.10;;;8.00;;
9720;SDS011;4899;42.644;23.366;2022-07-03T02:03:14;10.00;;;8.47;;
9720;SDS011;4899;42.644;23.366;2022-07-03T02:05:50;11.90;;;8.53;;
9720;SDS011;4899;42.644;23.366;2022-07-03T02:08:27;9.37;;;8.10;;
9720;SDS011;4899;42.644;23.366;2022-07-03T02:11:11;9.37;;;8.57;;
9720;SDS011;4899;42.644;23.366;2022-07-03T02:13:51;9.57;;;8.53;;
9720;SDS011;4899;42.644;23.366;2022-07-03T02:16:23;9.47;;;8.50;;
9720;SDS011;4899;42.644;23.366;2022-07-03T02:19:02;9.00;;;8.20;;
9720;SDS011;4899;42.644;23.366;2022-07-03T02:21:31;9.60;;;8.70;;
9720;SDS011;4899;42.644;23.366;2022-07-03T02:24:02;9.47;;;8.57;;
9720;SDS011;4899;42.644;23.366;2022-07-03T02:26:40;8.73;;;8.03;;
9720;SDS011;4899;42.644;23.366;2022-07-03T02:29:09;8.87;;;8.00;;
9720;SDS011;4899;42.644;23.366;2022-07-03T02:31:42;9.50;;;8.60;;
9720;SDS011;4899;42.644;23.366;2022-07-03T02:34:13;10.90;;;9.33;;
9720;SDS011;4899;42.644;23.366;2022-07-03T02:36:43;11.50;;;8.27;;
9720;SDS011;4899;42.644;23.366;2022-07-03T02:39:14;9.27;;;8.47;;
9720;SDS011;4899;42.644;23.366;2022-07-03T02:41:52;9.27;;;8.33;;
9720;SDS011;4899;42.644;23.366;2022-07-03T02:44:25;9.27;;;8.47;;
9720;SDS011;4899;42.644;23.366;2022-07-03T02:47:00;9.80;;;8.90;;
9720;SDS011;4899;42.644;23.366;2022-07-03T02:49:41;10.47;;;9.40;;
9720;SDS011;4899;42.644;23.366;2022-07-03T02:52:14;9.57;;;8.67;;
9720;SDS011;4899;42.644;23.366;2022-07-03T02:54:48;8.60;;;7.70;;
9720;SDS011;4899;42.644;23.366;2022-07-03T02:57:18;9.37;;;8.57;;
9720;SDS011;4899;42.644;23.366;2022-07-03T02:59:52;11.20;;;9.70;;
9720;SDS011;4899;42.644;23.366;2022-07-03T03:02:32;9.47;;;8.67;;
9720;SDS011;4899;42.644;23.366;2022-07-03T03:05:09;9.97;;;8.73;;
9720;SDS011;4899;42.644;23.366;2022-07-03T03:07:41;9.43;;;8.47;;
9720;SDS011;4899;42.644;23.366;2022-07-03T03:10:17;9.83;;;8.80;;
9720;SDS011;4899;42.644;23.366;2022-07-03T03:12:46;10.97;;;9.07;;
9720;SDS011;4899;42.644;23.366;2022-07-03T03:15:18;9.47;;;8.63;;
9720;SDS011;4899;42.644;23.366;2022-07-03T03:17:53;12.60;;;10.03;;
9720;SDS011;4899;42.644;23.366;2022-07-03T03:20:22;10.93;;;9.93;;
9720;SDS011;4899;42.644;23.366;2022-07-03T03:22:59;12.03;;;10.70;;
9720;SDS011;4899;42.644;23.366;2022-07-03T03:25:35;10.93;;;9.93;;
9720;SDS011;4899;42.644;23.366;2022-07-03T03:28:02;11.37;;;10.23;;
9720;SDS011;4899;42.644;23.366;2022-07-03T03:30:29;11.20;;;10.10;;
9720;SDS011;4899;42.644;23.366;2022-07-03T03:32:58;13.70;;;9.67;;
9720;SDS011;4899;42.644;23.366;2022-07-03T03:35:25;10.23;;;9.27;;
9720;SDS011;4899;42.644;23.366;2022-07-03T03:37:52;11.53;;;10.47;;
9720;SDS011;4899;42.644;23.366;2022-07-03T03:40:19;11.60;;;10.43;;
9720;SDS011;4899;42.644;23.366;2022-07-03T03:42:46;11.10;;;9.73;;
9720;SDS011;4899;42.644;23.366;2022-07-03T03:45:13;13.20;;;11.90;;
9720;SDS011;4899;42.644;23.366;2022-07-03T03:47:40;11.93;;;10.73;;
9720;SDS011;4899;42.644;23.366;2022-07-03T03:50:08;12.30;;;10.97;;
9720;SDS011;4899;42.644;23.366;2022-07-03T03:52:36;12.53;;;11.37;;
9720;SDS011;4899;42.644;23.366;2022-07-03T03:55:03;12.00;;;10.90;;
9720;SDS011;4899;42.644;23.366;2022-07-03T03:57:30;12.13;;;10.97;;
9720;SDS011;4899;42.644;23.366;2022-07-03T03:59:57;12.90;;;11.57;;
9720;SDS011;4899;42.644;23.366;2022-07-03T04:02:24;15.60;;;12.53;;
9720;SDS011;4899;42.644;23.366;2022-07-03T04:04:51;14.97;;;13.30;;
9720;SDS011;4899;42.644;23.366;2022-07-03T04:07:19;15.60;;;11.73;;
9720;SDS011;4899;42.644;23.366;2022-07-03T04:09:46;15.53;;;12.90;;
9720;SDS011;4899;42.644;23.366;2022-07-03T04:12:13;15.27;;;13.07;;
9720;SDS011;4899;42.644;23.366;2022-07-03T04:14:40;14.83;;;13.13;;
9720;SDS011;4899;42.644;23.366;2022-07-03T04:17:07;13.57;;;12.17;;
9720;SDS011;4899;42.644;23.366;2022-07-03T04:19:34;14.10;;;12.70;;
9720;SDS011;4899;42.644;23.366;2022-07-03T04:22:01;14.33;;;12.93;;
9720;SDS011;4899;42.644;23.366;2022-07-03T04:24:34;17.60;;;14.07;;
9720;SDS011;4899;42.644;23.366;2022-07-03T04:27:02;15.43;;;13.90;;
9720;SDS011;4899;42.644;23.366;2022-07-03T04:29:29;15.10;;;13.63;;
9720;SDS011;4899;42.644;23.366;2022-07-03T04:31:55;18.40;;;14.67;;
9720;SDS011;4899;42.644;23.366;2022-07-03T04:34:23;22.40;;;15.47;;
9720;SDS011;4899;42.644;23.366;2022-07-03T04:36:50;19.07;;;14.13;;
9720;SDS011;4899;42.644;23.366;2022-07-03T04:39:16;15.87;;;14.37;;
9720;SDS011;4899;42.644;23.366;2022-07-03T04:41:45;16.13;;;14.43;;
9720;SDS011;4899;42.644;23.366;2022-07-03T04:44:11;13.80;;;12.43;;
9720;SDS011;4899;42.644;23.366;2022-07-03T04:46:38;13.37;;;12.17;;
9720;SDS011;4899;42.644;23.366;2022-07-03T04:49:06;14.03;;;12.70;;
9720;SDS011;4899;42.644;23.366;2022-07-03T04:51:32;14.00;;;12.60;;
9720;SDS011;4899;42.644;23.366;2022-07-03T04:53:59;14.27;;;11.77;;
9720;SDS011;4899;42.644;23.366;2022-07-03T04:56:26;12.97;;;11.63;;
9720;SDS011;4899;42.644;23.366;2022-07-03T04:58:54;13.40;;;12.20;;
9720;SDS011;4899;42.644;23.366;2022-07-03T05:01:21;13.33;;;12.10;;
9720;SDS011;4899;42.644;23.366;2022-07-03T05:03:48;13.07;;;11.40;;
9720;SDS011;4899;42.644;23.366;2022-07-03T05:06:15;11.57;;;10.47;;
9720;SDS011;4899;42.644;23.366;2022-07-03T05:08:42;10.13;;;8.40;;
9720;SDS011;4899;42.644;23.366;2022-07-03T05:11:09;9.50;;;8.50;;
9720;SDS011;4899;42.644;23.366;2022-07-03T05:13:35;10.17;;;9.17;;
9720;SDS011;4899;42.644;23.366;2022-07-03T05:16:04;8.30;;;7.60;;
9720;SDS011;4899;42.644;23.366;2022-07-03T05:18:31;9.30;;;8.50;;
9720;SDS011;4899;42.644;23.366;2022-07-03T05:20:59;10.43;;;8.90;;
9720;SDS011;4899;42.644;23.366;2022-07-03T05:23:26;8.67;;;7.87;;
9720;SDS011;4899;42.644;23.366;2022-07-03T05:25:52;8.13;;;7.43;;
9720;SDS011;4899;42.644;23.366;2022-07-03T05:28:20;9.60;;;7.63;;
9720;SDS011;4899;42.644;23.366;2022-07-03T05:30:47;10.23;;;9.20;;
9720;SDS011;4899;42.644;23.366;2022-07-03T05:33:15;9.93;;;8.70;;
9720;SDS011;4899;42.644;23.366;2022-07-03T05:35:42;11.07;;;10.07;;
9720;SDS011;4899;42.644;23.366;2022-07-03T05:38:09;10.73;;;7.40;;
9720;SDS011;4899;42.644;23.366;2022-07-03T05:40:36;8.63;;;7.83;;
9720;SDS011;4899;42.644;23.366;2022-07-03T05:43:02;8.97;;;8.07;;
9720;SDS011;4899;42.644;23.366;2022-07-03T05:45:29;10.63;;;9.47;;
9720;SDS011;4899;42.644;23.366;2022-07-03T05:47:55;10.77;;;9.20;;
9720;SDS011;4899;42.644;23.366;2022-07-03T05:50:24;10.83;;;9.70;;
9720;SDS011;4899;42.644;23.366;2022-07-03T05:52:55;10.57;;;9.47;;
9720;SDS011;4899;42.644;23.366;2022-07-03T05:55:26;10.13;;;9.13;;
9720;SDS011;4899;42.644;23.366;2022-07-03T05:57:53;10.73;;;9.73;;
9720;SDS011;4899;42.644;23.366;2022-07-03T06:00:20;11.77;;;10.67;;
9720;SDS011;4899;42.644;23.366;2022-07-03T06:02:47;15.03;;;11.40;;
9720;SDS011;4899;42.644;23.366;2022-07-03T06:05:14;12.47;;;11.33;;
9720;SDS011;4899;42.644;23.366;2022-07-03T06:07:42;14.37;;;12.93;;
9720;SDS011;4899;42.644;23.366;2022-07-03T06:10:09;12.80;;;11.50;;
9720;SDS011;4899;42.644;23.366;2022-07-03T06:12:36;12.77;;;11.10;;
9720;SDS011;4899;42.644;23.366;2022-07-03T06:15:03;12.60;;;10.43;;
9720;SDS011;4899;42.644;23.366;2022-07-03T06:17:30;11.87;;;10.67;;
9720;SDS011;4899;42.644;23.366;2022-07-03T06:19:57;13.00;;;11.07;;
9720;SDS011;4899;42.644;23.366;2022-07-03T06:22:24;12.43;;;10.60;;
9720;SDS011;4899;42.644;23.366;2022-07-03T06:25:04;11.63;;;10.43;;
9720;SDS011;4899;42.644;23.366;2022-07-03T06:27:32;11.67;;;10.53;;
9720;SDS011;4899;42.644;23.366;2022-07-03T06:29:59;13.23;;;10.60;;
9720;SDS011;4899;42.644;23.366;2022-07-03T06:32:26;12.33;;;10.93;;
9720;SDS011;4899;42.644;23.366;2022-07-03T06:34:53;12.07;;;10.87;;
9720;SDS011;4899;42.644;23.366;2022-07-03T06:37:20;13.47;;;12.07;;
9720;SDS011;4899;42.644;23.366;2022-07-03T06:39:48;12.50;;;10.83;;
9720;SDS011;4899;42.644;23.366;2022-07-03T06:42:16;14.10;;;11.10;;
9720;SDS011;4899;42.644;23.366;2022-07-03T06:44:43;12.00;;;10.70;;
9720;SDS011;4899;42.644;23.366;2022-07-03T06:47:11;12.20;;;10.93;;
9720;SDS011;4899;42.644;23.366;2022-07-03T06:49:37;11.00;;;10.00;;
9720;SDS011;4899;42.644;23.366;2022-07-03T06:52:04;12.90;;;10.83;;
9720;SDS011;4899;42.644;23.366;2022-07-03T06:54:31;10.57;;;9.67;;
9720;SDS011;4899;42.644;23.366;2022-07-03T06:56:58;10.10;;;9.07;;
9720;SDS011;4899;42.644;23.366;2022-07-03T06:59:26;9.57;;;8.77;;
9720;SDS011;4899;42.644;23.366;2022-07-03T07:01:53;10.20;;;9.17;;
9720;SDS011;4899;42.644;23.366;2022-07-03T07:04:20;10.77;;;9.63;;
9720;SDS011;4899;42.644;23.366;2022-07-03T07:06:47;10.37;;;9.37;;
9720;SDS011;4899;42.644;23.366;2022-07-03T07:09:14;10.20;;;9.20;;
9720;SDS011;4899;42.644;23.366;2022-07-03T07:11:41;9.47;;;8.67;;
9720;SDS011;4899;42.644;23.366;2022-07-03T07:14:09;10.23;;;8.87;;
9720;SDS011;4899;42.644;23.366;2022-07-03T07:16:37;10.27;;;9.37;;
9720;SDS011;4899;42.644;23.366;2022-07-03T07:19:04;9.03;;;8.30;;
9720;SDS011;4899;42.644;23.366;2022-07-03T07:21:30;10.73;;;8.23;;
9720;SDS011;4899;42.644;23.366;2022-07-03T07:23:57;10.67;;;9.60;;
9720;SDS011;4899;42.644;23.366;2022-07-03T07:26:24;10.00;;;9.07;;
9720;SDS011;4899;42.644;23.366;2022-07-03T07:28:51;12.03;;;8.83;;
9720;SDS011;4899;42.644;23.366;2022-07-03T07:31:18;10.00;;;9.00;;
9720;SDS011;4899;42.644;23.366;2022-07-03T07:33:46;9.60;;;8.13;;
9720;SDS011;4899;42.644;23.366;2022-07-03T07:36:13;9.40;;;8.60;;
9720;SDS011;4899;42.644;23.366;2022-07-03T07:38:40;12.13;;;8.60;;
9720;SDS011;4899;42.644;23.366;2022-07-03T07:41:07;9.57;;;8.77;;
9720;SDS011;4899;42.644;23.366;2022-07-03T07:43:35;9.70;;;8.73;;
9720;SDS011;4899;42.644;23.366;2022-07-03T07:46:02;9.73;;;8.83;;
9720;SDS011;4899;42.644;23.366;2022-07-03T07:48:29;9.73;;;8.83;;
9720;SDS011;4899;42.644;23.366;2022-07-03T07:50:57;9.20;;;8.40;;
9720;SDS011;4899;42.644;23.366;2022-07-03T07:53:24;10.43;;;8.83;;
9720;SDS011;4899;42.644;23.366;2022-07-03T07:55:51;10.80;;;8.80;;
9720;SDS011;4899;42.644;23.366;2022-07-03T07:58:18;10.60;;;9.27;;
9720;SDS011;4899;42.644;23.366;2022-07-03T08:00:47;10.93;;;9.17;;
9720;SDS011;4899;42.644;23.366;2022-07-03T08:03:29;9.40;;;8.40;;
9720;SDS011;4899;42.644;23.366;2022-07-03T08:06:15;9.47;;;8.63;;
9720;SDS011;4899;42.644;23.366;2022-07-03T08:08:42;9.90;;;9.00;;
9720;SDS011;4899;42.644;23.366;2022-07-03T08:11:10;12.00;;;9.27;;
9720;SDS011;4899;42.644;23.366;2022-07-03T08:13:37;9.50;;;8.37;;
9720;SDS011;4899;42.644;23.366;2022-07-03T08:16:04;8.93;;;7.87;;
9720;SDS011;4899;42.644;23.366;2022-07-03T08:18:31;10.17;;;8.30;;
9720;SDS011;4899;42.644;23.366;2022-07-03T08:20:58;10.43;;;8.80;;
9720;SDS011;4899;42.644;23.366;2022-07-03T08:23:27;9.53;;;8.60;;
9720;SDS011;4899;42.644;23.366;2022-07-03T08:25:53;10.60;;;7.97;;
9720;SDS011;4899;42.644;23.366;2022-07-03T08:28:20;9.07;;;8.13;;
9720;SDS011;4899;42.644;23.366;2022-07-03T08:30:47;10.63;;;8.73;;
9720;SDS011;4899;42.644;23.366;2022-07-03T08:33:14;9.57;;;8.67;;
9720;SDS011;4899;42.644;23.366;2022-07-03T08:35:41;9.50;;;8.70;;
9720;SDS011;4899;42.644;23.366;2022-07-03T08:38:08;9.33;;;8.30;;
9720;SDS011;4899;42.644;23.366;2022-07-03T08:40:36;8.40;;;7.70;;
9720;SDS011;4899;42.644;23.366;2022-07-03T08:43:04;9.67;;;8.00;;
9720;SDS011;4899;42.644;23.366;2022-07-03T08:45:31;9.40;;;7.70;;
9720;SDS011;4899;42.644;23.366;2022-07-03T08:47:59;9.93;;;7.83;;
9720;SDS011;4899;42.644;23.366;2022-07-03T08:50:28;8.90;;;8.00;;
9720;SDS011;4899;42.644;23.366;2022-07-03T08:52:58;7.13;;;6.10;;
9720;SDS011;4899;42.644;23.366;2022-07-03T08:55:28;7.47;;;6.87;;
9720;SDS011;4899;42.644;23.366;2022-07-03T08:57:56;7.43;;;6.47;;
9720;SDS011;4899;42.644;23.366;2022-07-03T09:00:25;8.18;;;6.50;;
9720;SDS011;4899;42.644;23.366;2022-07-03T09:02:52;7.60;;;7.00;;
9720;SDS011;4899;42.644;23.366;2022-07-03T09:05:21;8.77;;;6.82;;
9720;SDS011;4899;42.644;23.366;2022-07-03T09:07:48;7.30;;;6.15;;
9720;SDS011;4899;42.644;23.366;2022-07-03T09:10:15;7.50;;;6.18;;
9720;SDS011;4899;42.644;23.366;2022-07-03T09:12:44;6.63;;;6.13;;
9720;SDS011;4899;42.644;23.366;2022-07-03T09:15:13;6.78;;;6.18;;
9720;SDS011;4899;42.644;23.366;2022-07-03T09:17:40;6.38;;;5.80;;
9720;SDS011;4899;42.644;23.366;2022-07-03T09:20:26;7.82;;;6.47;;
9720;SDS011;4899;42.644;23.366;2022-07-03T09:22:54;7.15;;;6.57;;
9720;SDS011;4899;42.644;23.366;2022-07-03T09:25:35;8.05;;;6.93;;
9720;SDS011;4899;42.644;23.366;2022-07-03T09:28:15;7.03;;;6.32;;
9720;SDS011;4899;42.644;23.366;2022-07-03T09:30:51;5.88;;;5.47;;
9720;SDS011;4899;42.644;23.366;2022-07-03T09:33:22;7.03;;;6.32;;
9720;SDS011;4899;42.644;23.366;2022-07-03T09:35:51;9.38;;;6.55;;
9720;SDS011;4899;42.644;23.366;2022-07-03T09:38:19;7.22;;;6.60;;
9720;SDS011;4899;42.644;23.366;2022-07-03T09:40:47;6.90;;;6.22;;
9720;SDS011;4899;42.644;23.366;2022-07-03T09:43:15;7.68;;;6.97;;
9720;SDS011;4899;42.644;23.366;2022-07-03T09:45:50;7.88;;;7.07;;
9720;SDS011;4899;42.644;23.366;2022-07-03T09:48:20;6.18;;;5.57;;
9720;SDS011;4899;42.644;23.366;2022-07-03T09:50:48;6.25;;;5.70;;
9720;SDS011;4899;42.644;23.366;2022-07-03T09:53:15;7.78;;;5.72;;
9720;SDS011;4899;42.644;23.366;2022-07-03T09:55:42;6.10;;;5.60;;
9720;SDS011;4899;42.644;23.366;2022-07-03T09:58:23;7.45;;;5.72;;
9720;SDS011;4899;42.644;23.366;2022-07-03T10:00:50;6.22;;;5.70;;
9720;SDS011;4899;42.644;23.366;2022-07-03T10:03:20;11.90;;;7.38;;
9720;SDS011;4899;42.644;23.366;2022-07-03T10:05:47;5.82;;;5.32;;
9720;SDS011;4899;42.644;23.366;2022-07-03T10:08:15;5.50;;;4.95;;
9720;SDS011;4899;42.644;23.366;2022-07-03T10:10:44;6.78;;;5.72;;
9720;SDS011;4899;42.644;23.366;2022-07-03T10:13:12;6.40;;;5.72;;
9720;SDS011;4899;42.644;23.366;2022-07-03T10:15:40;5.85;;;5.18;;
9720;SDS011;4899;42.644;23.366;2022-07-03T10:18:08;4.85;;;4.45;;
9720;SDS011;4899;42.644;23.366;2022-07-03T10:20:39;4.80;;;4.43;;
9720;SDS011;4899;42.644;23.366;2022-07-03T10:23:07;7.50;;;3.53;;
9720;SDS011;4899;42.644;23.366;2022-07-03T10:25:35;4.40;;;4.05;;
9720;SDS011;4899;42.644;23.366;2022-07-03T10:28:03;7.85;;;4.03;;
9720;SDS011;4899;42.644;23.366;2022-07-03T10:30:31;4.18;;;3.78;;
9720;SDS011;4899;42.644;23.366;2022-07-03T10:32:59;4.50;;;4.15;;
9720;SDS011;4899;42.644;23.366;2022-07-03T10:35:26;4.28;;;3.75;;
9720;SDS011;4899;42.644;23.366;2022-07-03T10:38:06;6.78;;;4.18;;
9720;SDS011;4899;42.644;23.366;2022-07-03T10:40:47;4.00;;;3.70;;
9720;SDS011;4899;42.644;23.366;2022-07-03T10:43:40;3.92;;;3.63;;
9720;SDS011;4899;42.644;23.366;2022-07-03T10:46:27;4.30;;;3.80;;
9720;SDS011;4899;42.644;23.366;2022-07-03T10:48:59;4.43;;;4.03;;
9720;SDS011;4899;42.644;23.366;2022-07-03T10:51:28;3.78;;;3.47;;
9720;SDS011;4899;42.644;23.366;2022-07-03T11:02:28;4.10;;;3.70;;
9720;SDS011;4899;42.644;23.366;2022-07-03T11:05:20;4.32;;;3.88;;
9720;SDS011;4899;42.644;23.366;2022-07-03T11:08:05;5.80;;;4.18;;
9720;SDS011;4899;42.644;23.366;2022-07-03T11:10:35;3.97;;;3.67;;
9720;SDS011;4899;42.644;23.366;2022-07-03T11:13:15;4.20;;;3.90;;
9720;SDS011;4899;42.644;23.366;2022-07-03T11:15:47;4.13;;;3.78;;
9720;SDS011;4899;42.644;23.366;2022-07-03T11:18:18;4.68;;;4.13;;
9720;SDS011;4899;42.644;23.366;2022-07-03T11:26:46;3.47;;;3.28;;
9720;SDS011;4899;42.644;23.366;2022-07-03T11:29:58;3.78;;;3.53;;
9720;SDS011;4899;42.644;23.366;2022-07-03T11:32:48;4.03;;;3.63;;
9720;SDS011;4899;42.644;23.366;2022-07-03T11:38:17;3.78;;;3.50;;
9720;SDS011;4899;42.644;23.366;2022-07-03T11:40:47;4.00;;;3.75;;
9720;SDS011;4899;42.644;23.366;2022-07-03T11:43:17;3.95;;;3.65;;
9720;SDS011;4899;42.644;23.366;2022-07-03T11:45:45;6.40;;;3.72;;
9720;SDS011;4899;42.644;23.366;2022-07-03T11:48:14;4.80;;;3.80;;
9720;SDS011;4899;42.644;23.366;2022-07-03T11:50:43;5.18;;;3.92;;
9720;SDS011;4899;42.644;23.366;2022-07-03T11:53:15;4.38;;;3.67;;
9720;SDS011;4899;42.644;23.366;2022-07-03T11:55:50;4.72;;;3.55;;
9720;SDS011;4899;42.644;23.366;2022-07-03T11:58:23;4.55;;;3.80;;
9720;SDS011;4899;42.644;23.366;2022-07-03T12:00:51;4.18;;;3.83;;
9720;SDS011;4899;42.644;23.366;2022-07-03T12:03:23;6.15;;;4.03;;
9720;SDS011;4899;42.644;23.366;2022-07-03T12:05:55;4.82;;;4.20;;
9720;SDS011;4899;42.644;23.366;2022-07-03T12:08:24;7.45;;;3.70;;
9720;SDS011;4899;42.644;23.366;2022-07-03T12:10:56;3.97;;;3.65;;
9720;SDS011;4899;42.644;23.366;2022-07-03T12:13:27;4.47;;;3.88;;
9720;SDS011;4899;42.644;23.366;2022-07-03T12:16:00;3.83;;;3.63;;
9720;SDS011;4899;42.644;23.366;2022-07-03T12:18:40;5.93;;;3.50;;
9720;SDS011;4899;42.644;23.366;2022-07-03T12:21:12;5.70;;;3.80;;
9720;SDS011;4899;42.644;23.366;2022-07-03T12:23:40;4.90;;;3.85;;
9720;SDS011;4899;42.644;23.366;2022-07-03T12:26:09;4.60;;;4.20;;
9720;SDS011;4899;42.644;23.366;2022-07-03T12:28:38;4.78;;;4.40;;
9720;SDS011;4899;42.644;23.366;2022-07-03T12:31:05;3.67;;;3.38;;
9720;SDS011;4899;42.644;23.366;2022-07-03T12:33:33;3.88;;;3.58;;
9720;SDS011;4899;42.644;23.366;2022-07-03T12:36:02;3.88;;;3.60;;
9720;SDS011;4899;42.644;23.366;2022-07-03T12:38:29;3.70;;;3.50;;
9720;SDS011;4899;42.644;23.366;2022-07-03T12:41:03;3.97;;;3.67;;
9720;SDS011;4899;42.644;23.366;2022-07-03T12:43:39;4.57;;;4.18;;
9720;SDS011;4899;42.644;23.366;2022-07-03T12:46:14;6.47;;;4.00;;
9720;SDS011;4899;42.644;23.366;2022-07-03T12:48:46;4.25;;;3.88;;
9720;SDS011;4899;42.644;23.366;2022-07-03T12:51:14;3.80;;;3.50;;
9720;SDS011;4899;42.644;23.366;2022-07-03T12:53:41;4.03;;;3.63;;
9720;SDS011;4899;42.644;23.366;2022-07-03T12:56:09;4.00;;;3.65;;
9720;SDS011;4899;42.644;23.366;2022-07-03T12:58:39;5.93;;;3.90;;
9720;SDS011;4899;42.644;23.366;2022-07-03T13:01:25;4.40;;;3.85;;
9720;SDS011;4899;42.644;23.366;2022-07-03T13:03:53;3.72;;;3.42;;
9720;SDS011;4899;42.644;23.366;2022-07-03T13:06:20;4.30;;;4.00;;
9720;SDS011;4899;42.644;23.366;2022-07-03T13:08:49;4.13;;;3.70;;
9720;SDS011;4899;42.644;23.366;2022-07-03T13:11:25;3.92;;;3.63;;
9720;SDS011;4899;42.644;23.366;2022-07-03T13:14:00;4.07;;;3.78;;
9720;SDS011;4899;42.644;23.366;2022-07-03T13:16:29;4.72;;;4.13;;
9720;SDS011;4899;42.644;23.366;2022-07-03T13:18:56;5.03;;;4.38;;
9720;SDS011;4899;42.644;23.366;2022-07-03T13:21:24;5.00;;;4.00;;
9720;SDS011;4899;42.644;23.366;2022-07-03T13:23:51;5.53;;;5.13;;
9720;SDS011;4899;42.644;23.366;2022-07-03T13:26:18;7.25;;;5.18;;
9720;SDS011;4899;42.644;23.366;2022-07-03T13:28:45;5.88;;;5.07;;
9720;SDS011;4899;42.644;23.366;2022-07-03T13:31:13;5.72;;;5.22;;
9720;SDS011;4899;42.644;23.366;2022-07-03T13:33:40;5.65;;;4.63;;
9720;SDS011;4899;42.644;23.366;2022-07-03T13:36:07;6.68;;;4.95;;
9720;SDS011;4899;42.644;23.366;2022-07-03T13:38:35;5.68;;;4.97;;
9720;SDS011;4899;42.644;23.366;2022-07-03T13:41:02;6.03;;;4.80;;
9720;SDS011;4899;42.644;23.366;2022-07-03T13:43:29;4.90;;;4.50;;
9720;SDS011;4899;42.644;23.366;2022-07-03T13:45:55;5.00;;;4.63;;
9720;SDS011;4899;42.644;23.366;2022-07-03T13:48:24;5.05;;;4.57;;
9720;SDS011;4899;42.644;23.366;2022-07-03T13:50:51;5.50;;;4.47;;
9720;SDS011;4899;42.644;23.366;2022-07-03T13:53:17;5.15;;;4.65;;
9720;SDS011;4899;42.644;23.366;2022-07-03T13:55:44;4.75;;;4.30;;
9720;SDS011;4899;42.644;23.366;2022-07-03T13:58:11;5.22;;;4.75;;
9720;SDS011;4899;42.644;23.366;2022-07-03T14:00:38;6.07;;;4.65;;
9720;SDS011;4899;42.644;23.366;2022-07-03T14:03:05;6.55;;;4.95;;
9720;SDS011;4899;42.644;23.366;2022-07-03T14:05:34;5.07;;;4.68;;
9720;SDS011;4899;42.644;23.366;2022-07-03T14:08:01;6.70;;;4.70;;
9720;SDS011;4899;42.644;23.366;2022-07-03T14:10:28;5.28;;;4.80;;
9720;SDS011;4899;42.644;23.366;2022-07-03T14:12:55;6.32;;;4.15;;
9720;SDS011;4899;42.644;23.366;2022-07-03T14:15:22;4.95;;;4.50;;
9720;SDS011;4899;42.644;23.366;2022-07-03T14:17:48;4.80;;;4.25;;
9720;SDS011;4899;42.644;23.366;2022-07-03T14:20:15;6.22;;;4.50;;
9720;SDS011;4899;42.644;23.366;2022-07-03T14:22:43;4.75;;;4.35;;
9720;SDS011;4899;42.644;23.366;2022-07-03T14:25:10;5.43;;;4.90;;
9720;SDS011;4899;42.644;23.366;2022-07-03T14:27:37;5.28;;;4.78;;
9720;SDS011;4899;42.644;23.366;2022-07-03T14:30:21;5.43;;;5.03;;
9720;SDS011;4899;42.644;23.366;2022-07-03T14:33:06;5.35;;;4.95;;
9720;SDS011;4899;42.644;23.366;2022-07-03T14:35:33;5.90;;;5.20;;
9720;SDS011;4899;42.644;23.366;2022-07-03T14:38:01;5.35;;;4.95;;
9720;SDS011;4899;42.644;23.366;2022-07-03T14:40:28;6.05;;;5.22;;
9720;SDS011;4899;42.644;23.366;2022-07-03T14:42:55;7.18;;;6.05;;
9720;SDS011;4899;42.644;23.366;2022-07-03T14:45:23;5.13;;;4.78;;
9720;SDS011;4899;42.644;23.366;2022-07-03T14:47:50;5.40;;;4.90;;
9720;SDS011;4899;42.644;23.366;2022-07-03T14:50:17;6.13;;;5.30;;
9720;SDS011;4899;42.644;23.366;2022-07-03T14:52:44;5.35;;;4.95;;
9720;SDS011;4899;42.644;23.366;2022-07-03T14:55:12;5.28;;;4.80;;
9720;SDS011;4899;42.644;23.366;2022-07-03T14:57:42;5.70;;;5.30;;
9720;SDS011;4899;42.644;23.366;2022-07-03T15:00:15;7.40;;;4.78;;
9720;SDS011;4899;42.644;23.366;2022-07-03T15:02:47;5.40;;;5.00;;
9720;SDS011;4899;42.644;23.366;2022-07-03T15:05:18;6.68;;;5.32;;
9720;SDS011;4899;42.644;23.366;2022-07-03T15:07:48;5.25;;;4.72;;
9720;SDS011;4899;42.644;23.366;2022-07-03T15:10:28;4.90;;;4.60;;
9720;SDS011;4899;42.644;23.366;2022-07-03T15:12:57;6.60;;;5.40;;
9720;SDS011;4899;42.644;23.366;2022-07-03T15:15:29;5.38;;;4.97;;
9720;SDS011;4899;42.644;23.366;2022-07-03T15:17:57;6.95;;;4.93;;
9720;SDS011;4899;42.644;23.366;2022-07-03T15:20:25;5.57;;;5.05;;
9720;SDS011;4899;42.644;23.366;2022-07-03T15:22:56;6.18;;;4.50;;
9720;SDS011;4899;42.644;23.366;2022-07-03T15:25:25;5.45;;;4.90;;
9720;SDS011;4899;42.644;23.366;2022-07-03T15:27:56;8.75;;;7.95;;
9720;SDS011;4899;42.644;23.366;2022-07-03T15:30:24;7.63;;;5.03;;